Terminal Aerodrome Forecast
Issued by NWS Memphis, TN

Current Version | Previous Version | Text Only | Print | Product List | Glossary On
Versions: 1 2 3 4 5 6 7 8 9 10 11 12 13 14 15 16 17 18 19 20 21 22 23 24 25 26 27
000
FTUS44 KMEG 221100
TAFMEM
TAF
KMEM 221120Z 2212/2312 05005KT P6SM FEW030 SCT250
     FM230100 10003KT P6SM SCT250
     FM230300 17002KT P6SM SKC=

USA.gov is the U.S. government's official web portal to all federal, state and local government web resources and services.